首页
METAR-TAF:

METAR-TAF

机场 :

伊萨卡, 紐約州, 美国

纬度: 42-29N, 经度: 076-27W, 海拔: 335米

当前天气观测

该预报发布于13分钟前的11:08 UTC
风速17节,风向西转西北
温度 -2°C
湿度 100%
气压 996 hPa
能見度: 6.4公里
阴天层高于900英尺
小雪, 轻雾

METAR: KITH 271108Z AUTO 29017KT 4SM -SN BR OVC009 M02/M02 A2940 RMK AO2 PK WND 28027/1057 CIG 005V012 P0000

时间: 06:21 (11:21 UTC)

预报

该预报发布于2小时和52分钟前的08:29 UTC
预报有效从27日的 08点(UTC)到 28日的 06点(UTC)
风速8节,风向西南
能見度: 9.7公里
阴天层高于1500英尺
小雨
短暂存在
从 27日的 09点(UTC)到 27日的 10点(UTC)
能見度: 3.2公里
小雪, 雨
从 27日的 1000点(UTC)
风速13节,风向西南,有时为23节阵风
能見度: 2.4公里
多云层高于800英尺
阴天层高于1500英尺
小雪
从 27日的 1400点(UTC)
风速25节,风向西,有时为35节阵风
能見度: 1.6公里
阴天层高于2500英尺
小阵雪, 高吹雪
从 27日的 1800点(UTC)
风速28节,风向西,有时为38节阵风
能見度: 10公里
多云层高于3500英尺
从 28日的 0000点(UTC)
风速20节,风向西,有时为30节阵风
能見度: 10公里
多云层高于4000英尺

TAF: KITH 270829Z 2708/2806 23008KT 6SM -RA OVC015 WS020/13040KT TEMPO 2709/2710 2SM -SNRA FM271000 23013G23KT 1 1/2SM -SN BKN008 OVC015 FM271400 27025G35KT 2SM -SHSN BLSN OVC025 FM271800 27028G38KT P6SM BKN035 FM280000 27020G30KT P6SM BKN040

超过4000个机场的气象观测和天气预报(METAR&TAF报告)。

可查询的气象台以黄色和红色小点在地图上表示。

将鼠标移到小点上方,可查看气象台名称。

然后点击查看天气观测和预报。

如需切换地图:点击带黑十字的绿色按钮放大地图;点击带横线的绿色按钮缩小地图;或者点击绿色箭头查看邻近地区的地图。


METAR-TAF: